Weather at Mount Riddock Airport

Public forecast

Using degrees Celsius for public forecast. Weather courtesy of forecast.io.

Closest aviation weather report (METAR) to Mount Riddock Airport

Closest report is Alice Springs Airport, 63.3 nm (117.2 km) SW. Retrieved 2021/06/25 03:00 UTC (38 minutes ago):

YBAS 250300Z AUTO 16010KT 9999 // BKN040 14/04 Q1024

Closest aviation forecast (TAF) to Mount Riddock Airport

Closest forecast is Alice Springs Airport, 63.3 nm (117.2 km) SW. Retrieved 2021-06-25 00:00 UTC (4 hours ago):

TAF YBAS 242303Z 2500/2600 16010KT 9999 FEW045 FM250830 16006KT 9999 FEW050 FM251500 27005KT 9999 SCT040